Airfield :
LOGIN :

Register | Disclaimer

   EN    FR    IT 

 










Legend :    VFR   Marginal VFR   IFR   Intensive IFR   Very Intensive IFR
Visi :
Ceiling :
>= 8 km
>= 3000ft
5 to 8 km
1000 to 3000 ft
1500m to 5 km
500 to 1000 ft
800 to 1500m
200 to 500 ft
< 800m
< 200 ft
Symbols :   Thunderstorms  Fog  Heavy snow  Heavy precipitations  Wind > 20 kt
SIGMETs :     Misc.  Thunderstorms  Icing  Turbulence  Mountain Waves  Volcanic Ashes







- Airport Elevation : 600 ft
- IATA code : VIE


LOWW - Vienna Schwechat

CURRENT METAR :
  • 171920Z VRB02KT CAVOK 04/M01 Q1007 BECMG 27015G25KT

EXPIRED METARs :
  • 171850Z 01002KT CAVOK 03/M01 Q1007 BECMG FM1930 27015G25KT
  • 171820Z 02003KT CAVOK 03/M02 Q1007 BECMG FM1930 27015G25KT
  • 171750Z 01002KT CAVOK 02/M02 Q1007 BECMG FM1930 27015G25KT
  • 171720Z 07005KT CAVOK 03/M01 Q1007 NOSIG
  • 171650Z 09005KT CAVOK 04/M02 Q1006 NOSIG

TAF TAF LOWW
Valid from the 17 at 18:00 until the 19 at 00:00 UTC


171715Z 1718/1824 12006KT CAVOK TX07/1723Z TNM02/1900Z
BECMG 1718/1720 28018G28KT 9999 FEW040 BKN070
TEMPO 1800/1803 25010KT
TEMPO 1803/1806 29025G35KT 7000 -SHRA BKN025 FEW030TCU
TEMPO 1810/1815 SCT030 FEW040TCU
BECMG 1815/1817 32007KT CAVOK
No reported NOTAMs for that airfield.



MET'MAP, your aeronautical weather chart ! - Copyright ORBIFLY December 2007 - Disclaimer

ORBIFLY MET'MAP TEAM :

Programming & Development : Alexandra Zaïnal
Concept & Development : Baudouin d'Aumeries
Co-Development & Prog : Marc-Olivier Méhu
Technical & hardware support : Manuel Goepfert

Contact : metmap@orbifly.com




SOURCES & CREDITS :

   NOAA